createdAt,value
2018-12-26T00:00:40.150Z,34.77
2018-12-26T00:03:10.306Z,28.83
2018-12-26T00:05:40.323Z,35.07
2018-12-26T00:08:10.481Z,34.27
2018-12-26T00:10:40.645Z,30.30
2018-12-26T00:13:10.502Z,29.93
2018-12-26T00:15:40.456Z,28.87
2018-12-26T00:18:10.332Z,34.83
2018-12-26T00:20:40.635Z,32.43
2018-12-26T00:23:10.826Z,26.67
2018-12-26T00:25:40.708Z,31.77
2018-12-26T00:28:10.541Z,25.70
2018-12-26T00:30:40.459Z,28.80
2018-12-26T00:33:10.305Z,32.10
2018-12-26T00:35:40.459Z,30.33
2018-12-26T00:38:10.821Z,32.23
2018-12-26T00:40:40.673Z,31.77
2018-12-26T00:43:10.524Z,30.33
2018-12-26T00:45:40.517Z,29.37
2018-12-26T00:48:10.340Z,28.07
2018-12-26T00:50:40.221Z,31.17
2018-12-26T00:53:10.380Z,31.90
2018-12-26T00:55:40.276Z,29.47
2018-12-26T00:58:10.144Z,30.00
2018-12-26T01:00:40.021Z,31.70
2018-12-26T01:03:09.845Z,30.93
2018-12-26T01:05:39.775Z,36.23
2018-12-26T01:08:09.682Z,25.13
2018-12-26T01:10:39.569Z,28.60
2018-12-26T01:13:09.725Z,28.17
2018-12-26T01:15:40.086Z,33.73
2018-12-26T01:18:09.938Z,33.87
2018-12-26T01:20:39.804Z,26.40
2018-12-26T01:23:09.695Z,24.97
2018-12-26T01:25:39.861Z,26.30
2018-12-26T01:28:10.328Z,24.70
2018-12-26T01:30:40.531Z,25.10
2018-12-26T01:33:10.468Z,27.33
2018-12-26T01:35:40.380Z,25.90
2018-12-26T01:38:10.236Z,28.97
2018-12-26T01:40:40.104Z,25.47
2018-12-26T01:43:10.042Z,23.40
2018-12-26T01:45:39.945Z,22.00
2018-12-26T01:48:09.832Z,21.73
2018-12-26T01:50:39.754Z,19.63
2018-12-26T01:53:09.702Z,23.50
2018-12-26T01:55:39.637Z,24.00
2018-12-26T01:58:09.864Z,26.07
2018-12-26T02:00:39.720Z,21.17
2018-12-26T02:03:09.654Z,23.60
2018-12-26T02:05:39.586Z,22.63
2018-12-26T02:08:09.443Z,22.80
2018-12-26T02:10:39.346Z,23.00
2018-12-26T02:13:09.195Z,20.37
2018-12-26T02:15:39.060Z,23.80
2018-12-26T02:18:09.277Z,23.13
2018-12-26T02:20:39.217Z,23.17
2018-12-26T02:23:09.235Z,26.40
2018-12-26T02:25:39.175Z,21.73
2018-12-26T02:28:09.041Z,19.10
2018-12-26T02:30:39.153Z,29.07
2018-12-26T02:33:09.034Z,24.07
2018-12-26T02:35:39.152Z,22.33
2018-12-26T02:38:09.083Z,19.03
2018-12-26T02:40:38.957Z,23.10
2018-12-26T02:43:08.903Z,19.27
2018-12-26T02:45:39.088Z,20.33
2018-12-26T02:48:08.959Z,25.87
2018-12-26T02:50:39.022Z,25.63
2018-12-26T02:53:08.904Z,18.00
2018-12-26T02:55:38.828Z,17.83
2018-12-26T02:58:09.026Z,22.30
2018-12-26T03:00:38.964Z,20.80
2018-12-26T03:03:08.837Z,21.20
2018-12-26T03:05:38.775Z,17.17
2018-12-26T03:08:08.995Z,18.53
2018-12-26T03:10:38.836Z,22.57
2018-12-26T03:13:08.802Z,20.40
2018-12-26T03:15:38.760Z,22.60
2018-12-26T03:18:08.574Z,17.67
2018-12-26T03:20:38.750Z,20.00
2018-12-26T03:23:08.613Z,21.40
2018-12-26T03:25:38.620Z,23.83
2018-12-26T03:28:08.790Z,21.57
2018-12-26T03:30:38.666Z,17.33
2018-12-26T03:33:08.545Z,18.33
2018-12-26T03:35:38.683Z,17.17
2018-12-26T03:38:08.714Z,21.43
2018-12-26T03:40:38.634Z,24.70
2018-12-26T03:43:08.697Z,20.33
2018-12-26T03:45:38.769Z,21.37
2018-12-26T03:48:08.739Z,18.83
2018-12-26T03:50:38.666Z,16.67
2018-12-26T03:53:08.771Z,19.50
2018-12-26T03:55:38.703Z,18.10
2018-12-26T03:58:08.935Z,20.73
2018-12-26T04:00:38.915Z,25.63
2018-12-26T04:03:09.107Z,17.60
2018-12-26T04:05:39.071Z,21.37
2018-12-26T04:08:09.107Z,19.60
2018-12-26T04:10:39.039Z,17.53
2018-12-26T04:13:09.097Z,18.90
2018-12-26T04:15:39.453Z,19.30
2018-12-26T04:18:09.535Z,16.67
2018-12-26T04:20:39.720Z,24.50
2018-12-26T04:23:09.645Z,20.33
2018-12-26T04:25:39.530Z,22.80
2018-12-26T04:28:09.400Z,20.13
2018-12-26T04:30:39.285Z,20.13
2018-12-26T04:33:09.131Z,21.93
2018-12-26T04:35:39.013Z,19.70
2018-12-26T04:38:08.892Z,17.93
2018-12-26T04:40:38.785Z,23.83
2018-12-26T04:43:08.640Z,21.07
2018-12-26T04:45:38.682Z,22.87
2018-12-26T04:48:08.621Z,25.33
2018-12-26T04:50:38.493Z,16.90
2018-12-26T04:53:08.453Z,18.43
2018-12-26T04:55:38.328Z,26.10
2018-12-26T04:58:08.465Z,19.83
2018-12-26T05:00:38.771Z,24.83
2018-12-26T05:03:09.447Z,20.00
2018-12-26T05:05:39.402Z,20.33
2018-12-26T05:08:09.618Z,22.93
2018-12-26T05:10:39.783Z,24.53
2018-12-26T05:13:09.719Z,23.70
2018-12-26T05:15:39.666Z,24.80
2018-12-26T05:18:09.781Z,21.37
2018-12-26T05:20:39.774Z,21.10
2018-12-26T05:23:10.086Z,24.43
2018-12-26T05:25:40.034Z,22.20
2018-12-26T05:28:09.964Z,22.90
2018-12-26T05:30:39.823Z,24.63
2018-12-26T05:33:09.682Z,24.57
2018-12-26T05:35:39.579Z,24.63
2018-12-26T05:38:09.492Z,21.40
2018-12-26T05:40:39.351Z,22.87
2018-12-26T05:43:09.249Z,20.27
2018-12-26T05:45:39.155Z,24.27
2018-12-26T05:48:09.028Z,23.77
2018-12-26T05:50:38.922Z,26.10
2018-12-26T05:53:08.783Z,26.40
2018-12-26T05:55:38.669Z,27.33
2018-12-26T05:58:08.555Z,22.80
2018-12-26T06:00:38.724Z,23.23
2018-12-26T06:03:08.633Z,21.27
2018-12-26T06:05:38.574Z,20.43
2018-12-26T06:08:10.701Z,26.90
2018-12-26T06:10:40.835Z,29.27
2018-12-26T06:13:10.722Z,25.23
2018-12-26T06:15:40.588Z,26.60
2018-12-26T06:18:11.054Z,23.70
2018-12-26T06:20:41.208Z,27.60
2018-12-26T06:23:11.127Z,24.43
2018-12-26T06:25:41.241Z,26.90
2018-12-26T06:28:11.363Z,24.00
2018-12-26T06:30:41.209Z,25.50
2018-12-26T06:33:11.144Z,33.47
2018-12-26T06:35:41.030Z,29.00
2018-12-26T06:38:10.907Z,31.33
2018-12-26T06:40:40.917Z,28.67
2018-12-26T06:43:10.783Z,29.73
2018-12-26T06:45:40.798Z,26.70
2018-12-26T06:48:10.682Z,26.80
2018-12-26T06:50:40.572Z,31.60
2018-12-26T06:53:10.510Z,28.63
2018-12-26T06:55:41.703Z,31.10
2018-12-26T06:58:11.791Z,32.00
2018-12-26T07:00:42.022Z,39.20
2018-12-26T07:03:11.904Z,33.90
2018-12-26T07:05:41.811Z,39.33
2018-12-26T07:08:12.259Z,38.73
2018-12-26T07:10:42.177Z,42.53
2018-12-26T07:13:12.093Z,40.03
2018-12-26T07:15:42.015Z,39.13
2018-12-26T07:18:11.913Z,40.57
2018-12-26T07:20:41.821Z,40.30
2018-12-26T07:23:13.096Z,35.97
2018-12-26T07:25:43.616Z,39.73
2018-12-26T07:28:13.862Z,38.20
2018-12-26T07:30:44.023Z,36.60
2018-12-26T07:33:14.179Z,34.67
2018-12-26T07:35:44.111Z,31.53
2018-12-26T07:38:13.968Z,37.90
2018-12-26T07:40:43.830Z,36.73
2018-12-26T07:43:14.132Z,36.73
2018-12-26T07:45:44.274Z,36.70
2018-12-26T07:48:14.173Z,28.17
2018-12-26T07:50:44.055Z,38.80
2018-12-26T07:53:13.978Z,35.53
2018-12-26T07:55:44.194Z,37.83
2018-12-26T07:58:17.678Z,31.90
2018-12-26T08:00:46.616Z,32.17
2018-12-26T08:03:16.741Z,28.57
2018-12-26T08:05:46.663Z,29.93
2018-12-26T08:08:16.541Z,30.57
2018-12-26T08:10:46.403Z,26.97
2018-12-26T08:13:16.380Z,27.50
2018-12-26T08:15:46.296Z,28.50
2018-12-26T08:18:16.278Z,29.03
2018-12-26T08:20:46.199Z,28.00
2018-12-26T08:23:16.105Z,27.07
2018-12-26T08:25:46.253Z,31.53
2018-12-26T08:28:16.388Z,27.83
2018-12-26T08:30:46.294Z,29.30
2018-12-26T08:33:16.362Z,24.27
2018-12-26T08:35:46.605Z,30.50
2018-12-26T08:38:16.521Z,30.10
2018-12-26T08:40:46.375Z,25.30
2018-12-26T08:43:16.266Z,25.17
2018-12-26T08:45:46.402Z,33.33
2018-12-26T08:48:16.625Z,32.53
2018-12-26T08:50:46.586Z,32.73
2018-12-26T08:53:16.492Z,29.83
2018-12-26T08:55:51.073Z,32.90
2018-12-26T08:58:20.965Z,30.03
2018-12-26T09:00:51.226Z,26.47
2018-12-26T09:03:21.613Z,27.13
2018-12-26T09:05:51.593Z,28.00
2018-12-26T09:08:21.482Z,29.70
2018-12-26T09:10:51.487Z,28.33
2018-12-26T09:13:21.614Z,28.60
2018-12-26T09:15:51.532Z,30.00
2018-12-26T09:18:21.418Z,25.30
2018-12-26T09:20:51.320Z,25.37
2018-12-26T09:23:21.656Z,22.77
2018-12-26T09:25:58.424Z,23.20
2018-12-26T09:28:28.369Z,26.23
2018-12-26T09:30:58.221Z,29.97
2018-12-26T09:33:28.234Z,26.03
2018-12-26T09:35:58.438Z,25.83
2018-12-26T09:38:28.325Z,27.90
2018-12-26T09:40:58.220Z,25.43
2018-12-26T09:43:28.580Z,42.30
2018-12-26T09:45:58.463Z,27.67
2018-12-26T09:48:28.378Z,26.90
2018-12-26T09:50:58.266Z,28.13
2018-12-26T09:53:28.125Z,29.40
2018-12-26T09:55:58.048Z,25.47
2018-12-26T09:58:28.272Z,31.47
2018-12-26T10:00:58.156Z,27.30
2018-12-26T10:03:27.996Z,32.70
2018-12-26T10:05:57.862Z,34.73
2018-12-26T10:08:28.003Z,31.67
2018-12-26T10:10:58.583Z,30.50
2018-12-26T10:13:28.787Z,29.10
2018-12-26T10:15:58.885Z,26.53
2018-12-26T10:18:28.763Z,28.90
2018-12-26T10:20:58.613Z,30.50
2018-12-26T10:23:28.811Z,31.80
2018-12-26T10:25:58.721Z,25.30
2018-12-26T10:28:28.659Z,27.70
2018-12-26T10:30:58.546Z,26.63
2018-12-26T10:33:29.041Z,27.03
2018-12-26T10:35:58.908Z,26.00
2018-12-26T10:38:29.451Z,28.90
2018-12-26T10:40:59.346Z,25.93
2018-12-26T10:43:29.256Z,25.70
2018-12-26T10:45:59.119Z,25.00
2018-12-26T10:48:29.232Z,26.87
2018-12-26T10:50:59.361Z,27.73
2018-12-26T10:53:29.210Z,27.77
2018-12-26T10:55:59.072Z,31.33
2018-12-26T10:58:28.912Z,24.77
2018-12-26T11:00:58.819Z,24.90
2018-12-26T11:03:28.631Z,25.93
2018-12-26T11:05:58.536Z,25.97
2018-12-26T11:08:28.714Z,24.90
2018-12-26T11:10:58.595Z,30.27
2018-12-26T11:13:28.866Z,25.97
2018-12-26T11:15:58.850Z,27.93
2018-12-26T11:18:28.741Z,27.20
2018-12-26T11:20:58.611Z,29.43
2018-12-26T11:23:28.452Z,24.77
2018-12-26T11:25:58.301Z,26.23
2018-12-26T11:28:28.202Z,28.37
2018-12-26T11:30:58.074Z,24.17
2018-12-26T11:33:28.019Z,25.73
2018-12-26T11:35:57.956Z,24.23
2018-12-26T11:38:31.211Z,26.43
2018-12-26T11:41:01.058Z,25.30
2018-12-26T11:43:30.949Z,28.40
2018-12-26T11:46:01.149Z,25.03
2018-12-26T11:48:31.056Z,26.17
2018-12-26T11:51:00.951Z,24.73
2018-12-26T11:53:30.820Z,28.23
2018-12-26T11:56:00.686Z,23.60
2018-12-26T11:58:30.608Z,26.00
2018-12-26T12:01:00.489Z,26.00
2018-12-26T12:03:30.633Z,22.67
2018-12-26T12:06:00.534Z,20.67
2018-12-26T12:08:30.489Z,23.53
2018-12-26T12:11:00.416Z,22.40
2018-12-26T12:13:30.366Z,23.63
2018-12-26T12:16:00.550Z,24.67
2018-12-26T12:18:30.403Z,23.47
2018-12-26T12:21:00.712Z,22.60
2018-12-26T12:23:30.624Z,22.60
2018-12-26T12:26:00.754Z,27.97
2018-12-26T12:28:30.632Z,24.30
2018-12-26T12:31:00.488Z,23.67
2018-12-26T12:33:30.393Z,26.90
2018-12-26T12:36:00.358Z,27.20
2018-12-26T12:38:30.213Z,26.40
2018-12-26T12:41:00.124Z,27.73
2018-12-26T12:43:30.013Z,28.83
2018-12-26T12:45:59.898Z,35.00
2018-12-26T12:48:30.207Z,26.07
2018-12-26T12:51:00.138Z,29.83
2018-12-26T12:53:30.413Z,30.90
2018-12-26T12:56:00.581Z,35.43
2018-12-26T12:58:30.569Z,34.30
2018-12-26T13:01:00.752Z,29.77
2018-12-26T13:03:30.591Z,32.53
2018-12-26T13:06:00.475Z,33.63
2018-12-26T13:08:30.347Z,36.53
2018-12-26T13:11:00.312Z,31.50
2018-12-26T13:13:31.787Z,37.57
2018-12-26T13:16:01.881Z,33.37
2018-12-26T13:18:31.769Z,31.07
2018-12-26T13:21:01.819Z,36.37
2018-12-26T13:23:31.908Z,34.90
2018-12-26T13:26:01.780Z,33.30
2018-12-26T13:28:31.681Z,35.53
2018-12-26T13:31:05.067Z,35.80
2018-12-26T13:33:33.147Z,32.33
2018-12-26T13:36:03.018Z,34.07
2018-12-26T13:38:33.284Z,30.67
2018-12-26T13:41:03.126Z,35.80
2018-12-26T13:43:33.240Z,34.60
2018-12-26T13:46:03.096Z,35.03
2018-12-26T13:48:32.996Z,31.00
2018-12-26T13:51:02.850Z,34.10
2018-12-26T13:53:33.073Z,35.50
2018-12-26T13:56:03.274Z,61.47
2018-12-26T13:58:33.734Z,45.87
2018-12-26T14:01:03.658Z,32.80
2018-12-26T14:03:34.160Z,35.23
2018-12-26T14:06:04.092Z,30.37
2018-12-26T14:08:33.955Z,38.27
2018-12-26T14:11:03.906Z,39.93
2018-12-26T14:13:33.758Z,36.43
2018-12-26T14:16:03.717Z,33.67
2018-12-26T14:18:33.583Z,34.87
2018-12-26T14:21:03.513Z,33.87
2018-12-26T14:23:33.669Z,40.27
2018-12-26T14:26:03.563Z,36.37
2018-12-26T14:28:33.517Z,39.80
2018-12-26T14:31:03.423Z,38.50
2018-12-26T14:33:33.324Z,40.83
2018-12-26T14:36:03.526Z,46.13
2018-12-26T14:38:33.483Z,36.40
2018-12-26T14:41:03.392Z,38.50
2018-12-26T14:43:33.260Z,44.90
2018-12-26T14:46:03.208Z,38.73
2018-12-26T14:48:33.056Z,37.60
2018-12-26T14:51:03.011Z,33.77
2018-12-26T14:53:32.907Z,35.27
2018-12-26T14:56:03.202Z,45.83
2018-12-26T14:58:33.085Z,40.37
2018-12-26T15:01:03.224Z,43.47
2018-12-26T15:03:33.148Z,49.30
2018-12-26T15:06:02.983Z,40.97
2018-12-26T15:08:32.917Z,40.27
2018-12-26T15:11:04.601Z,50.10
2018-12-26T15:13:34.723Z,37.93
2018-12-26T15:16:04.609Z,53.97
2018-12-26T15:18:34.487Z,45.23
2018-12-26T15:21:04.384Z,50.27
2018-12-26T15:23:34.262Z,54.60
2018-12-26T15:26:04.145Z,47.37
2018-12-26T15:28:34.003Z,43.23
2018-12-26T15:31:03.902Z,49.40
2018-12-26T15:33:33.778Z,47.23
2018-12-26T15:36:03.657Z,50.07
2018-12-26T15:38:33.515Z,50.30
2018-12-26T15:41:03.802Z,45.77
2018-12-26T15:43:33.645Z,46.53
2018-12-26T15:46:03.927Z,43.90
2018-12-26T15:48:33.801Z,62.93
2018-12-26T15:51:03.721Z,48.00
2018-12-26T15:53:34.116Z,51.53
2018-12-26T15:56:04.458Z,50.37
2018-12-26T15:58:34.626Z,42.27
2018-12-26T16:01:04.797Z,41.20
2018-12-26T16:03:34.953Z,44.37
2018-12-26T16:06:05.207Z,46.40
2018-12-26T16:08:35.802Z,49.50
2018-12-26T16:11:05.808Z,52.77
2018-12-26T16:13:35.795Z,55.77
2018-12-26T16:16:05.775Z,57.17
2018-12-26T16:18:35.791Z,49.20
2018-12-26T16:21:05.806Z,44.03
2018-12-26T16:23:35.723Z,50.63
2018-12-26T16:26:05.681Z,45.60
2018-12-26T16:28:35.661Z,46.67
2018-12-26T16:31:05.617Z,43.67
2018-12-26T16:33:35.524Z,45.20
2018-12-26T16:36:05.416Z,51.20
2018-12-26T16:38:35.483Z,42.93
2018-12-26T16:41:05.316Z,41.20
2018-12-26T16:43:35.158Z,46.90
2018-12-26T16:46:05.115Z,42.67
2018-12-26T16:48:35.035Z,43.73
2018-12-26T16:51:04.953Z,44.40
2018-12-26T16:53:34.831Z,48.47
2018-12-26T16:56:04.764Z,41.27
2018-12-26T16:58:34.657Z,50.03
2018-12-26T17:01:04.542Z,44.53
2018-12-26T17:03:34.775Z,40.53
2018-12-26T17:06:04.670Z,47.87
2018-12-26T17:08:34.561Z,49.97
2018-12-26T17:11:04.479Z,51.70
2018-12-26T17:13:34.659Z,51.30
2018-12-26T17:16:04.542Z,44.37
2018-12-26T17:18:34.441Z,51.43
2018-12-26T17:21:04.537Z,48.33
2018-12-26T17:23:34.852Z,46.40
2018-12-26T17:26:05.821Z,50.47
2018-12-26T17:28:35.708Z,54.67
2018-12-26T17:31:09.207Z,49.50
2018-12-26T17:33:39.341Z,49.93
2018-12-26T17:36:10.097Z,52.30
2018-12-26T17:38:39.985Z,57.17
2018-12-26T17:41:09.877Z,53.30
2018-12-26T17:43:39.777Z,48.70
2018-12-26T17:46:09.621Z,52.83
2018-12-26T17:48:39.496Z,55.60
2018-12-26T17:51:16.093Z,55.53
2018-12-26T17:54:08.614Z,47.17
2018-12-26T17:57:18.452Z,51.47
2018-12-26T18:00:43.901Z,51.03
2018-12-26T18:03:13.880Z,46.40
2018-12-26T18:05:44.230Z,48.03
2018-12-26T18:08:14.341Z,45.73
2018-12-26T18:10:44.216Z,42.30
2018-12-26T18:13:14.166Z,46.90
2018-12-26T18:15:44.204Z,50.63
2018-12-26T18:18:14.044Z,42.13
2018-12-26T18:20:44.146Z,42.50
2018-12-26T18:23:14.184Z,56.63
2018-12-26T18:25:44.083Z,49.93
2018-12-26T18:28:14.187Z,55.57
2018-12-26T18:30:44.024Z,52.53
2018-12-26T18:33:13.918Z,49.07
2018-12-26T18:35:43.773Z,54.37
2018-12-26T18:38:13.684Z,45.90
2018-12-26T18:40:43.649Z,49.13
2018-12-26T18:43:13.549Z,47.37
2018-12-26T18:45:43.420Z,45.00
2018-12-26T18:48:14.237Z,44.17
2018-12-26T18:50:45.731Z,52.03
2018-12-26T18:53:15.831Z,51.60
2018-12-26T18:55:45.688Z,45.87
2018-12-26T18:58:15.552Z,56.53
2018-12-26T19:00:45.770Z,50.20
2018-12-26T19:03:15.622Z,53.77
2018-12-26T19:05:45.481Z,51.67
2018-12-26T19:08:15.393Z,54.70
2018-12-26T19:10:45.270Z,48.80
2018-12-26T19:13:15.149Z,47.50
2018-12-26T19:15:45.093Z,50.40
2018-12-26T19:18:15.244Z,50.47
2018-12-26T19:20:45.142Z,49.93
2018-12-26T19:23:15.036Z,59.93
2018-12-26T19:25:44.930Z,60.10
2018-12-26T19:28:14.780Z,51.47
2018-12-26T19:30:44.933Z,54.50
2018-12-26T19:33:14.871Z,56.87
2018-12-26T19:35:44.995Z,59.57
2018-12-26T19:38:15.663Z,56.70
2018-12-26T19:40:46.373Z,53.33
2018-12-26T19:43:16.628Z,51.93
2018-12-26T19:45:46.975Z,53.40
2018-12-26T19:48:16.837Z,52.93
2018-12-26T19:50:47.022Z,57.17
2018-12-26T19:53:16.904Z,49.83
2018-12-26T19:55:47.126Z,48.43
2018-12-26T19:58:17.039Z,48.77
2018-12-26T20:00:46.998Z,51.40
2018-12-26T20:03:16.884Z,49.47
2018-12-26T20:05:46.774Z,48.97
2018-12-26T20:08:16.941Z,52.93
2018-12-26T20:10:47.059Z,48.73
2018-12-26T20:13:16.970Z,53.37
2018-12-26T20:15:47.177Z,54.43
2018-12-26T20:18:16.989Z,52.70
2018-12-26T20:20:46.833Z,55.47
2018-12-26T20:23:16.665Z,54.63
2018-12-26T20:25:46.529Z,56.20
2018-12-26T20:28:16.645Z,78.83
2018-12-26T20:30:46.481Z,65.20
2018-12-26T20:33:16.419Z,50.70
2018-12-26T20:35:46.305Z,51.60
2018-12-26T20:38:16.217Z,59.53
2018-12-26T20:40:46.465Z,60.53
2018-12-26T20:43:16.275Z,68.40
2018-12-26T20:45:46.159Z,63.63
2018-12-26T20:48:16.003Z,61.93
2018-12-26T20:50:45.863Z,55.80
2018-12-26T20:53:15.761Z,65.17
2018-12-26T20:55:45.584Z,58.67
2018-12-26T20:58:15.447Z,67.97
2018-12-26T21:00:45.598Z,72.47
2018-12-26T21:03:15.758Z,60.97
2018-12-26T21:05:45.671Z,57.40
2018-12-26T21:08:15.606Z,64.63
2018-12-26T21:10:46.090Z,59.30
2018-12-26T21:13:15.977Z,58.33
2018-12-26T21:15:45.855Z,64.30
2018-12-26T21:18:15.700Z,73.53
2018-12-26T21:20:45.611Z,65.73
2018-12-26T21:23:15.465Z,64.43
2018-12-26T21:25:46.758Z,67.10
2018-12-26T21:28:16.835Z,67.80
2018-12-26T21:30:46.779Z,56.50
2018-12-26T21:33:16.772Z,68.33
2018-12-26T21:35:46.642Z,71.30
2018-12-26T21:38:16.528Z,67.80
2018-12-26T21:40:46.410Z,63.60
2018-12-26T21:43:16.272Z,73.87
2018-12-26T21:45:46.146Z,68.73
2018-12-26T21:48:15.997Z,57.70
2018-12-26T21:50:46.172Z,64.17
2018-12-26T21:53:16.024Z,51.00
2018-12-26T21:55:45.861Z,58.20
2018-12-26T21:58:15.722Z,52.33
2018-12-26T22:00:45.634Z,57.57
2018-12-26T22:03:15.472Z,50.63
2018-12-26T22:05:45.417Z,47.37
2018-12-26T22:08:15.306Z,52.53
2018-12-26T22:10:45.207Z,47.50
2018-12-26T22:13:15.440Z,42.20
2018-12-26T22:15:45.346Z,39.07
2018-12-26T22:18:15.288Z,35.17
2018-12-26T22:20:45.175Z,41.40
2018-12-26T22:23:15.129Z,32.50
2018-12-26T22:25:44.965Z,35.40
2018-12-26T22:28:14.855Z,31.20
2018-12-26T22:30:44.707Z,29.50
2018-12-26T22:33:14.647Z,32.93
2018-12-26T22:35:44.847Z,30.47
2018-12-26T22:38:14.729Z,21.07
2018-12-26T22:40:44.556Z,25.80
2018-12-26T22:43:14.672Z,25.93
2018-12-26T22:45:44.530Z,21.73
2018-12-26T22:48:14.406Z,19.60
2018-12-26T22:50:44.609Z,20.00
2018-12-26T22:53:14.496Z,19.43
2018-12-26T22:55:44.714Z,19.73
2018-12-26T22:58:14.590Z,18.13
2018-12-26T23:00:47.081Z,20.13
2018-12-26T23:03:17.030Z,21.77
2018-12-26T23:05:47.193Z,21.27
2018-12-26T23:08:17.056Z,17.70
2018-12-26T23:10:47.381Z,18.43
2018-12-26T23:13:17.354Z,21.73
2018-12-26T23:15:47.222Z,19.27
2018-12-26T23:18:17.483Z,20.00
2018-12-26T23:20:47.371Z,17.33
2018-12-26T23:23:17.488Z,16.50
2018-12-26T23:25:47.417Z,20.23
2018-12-26T23:28:17.300Z,18.80
2018-12-26T23:30:47.339Z,19.47
2018-12-26T23:33:17.230Z,17.83
2018-12-26T23:35:47.060Z,15.73
2018-12-26T23:38:17.012Z,16.37
2018-12-26T23:40:46.922Z,18.60
2018-12-26T23:43:16.979Z,18.90
2018-12-26T23:45:46.843Z,19.97
2018-12-26T23:48:17.084Z,20.67
2018-12-26T23:50:46.977Z,20.10
2018-12-26T23:53:16.839Z,22.10
2018-12-26T23:55:46.716Z,24.57
2018-12-26T23:58:17.065Z,24.80
